Time,TemperatureF,DewpointF,PressureIn,WindDirection,WindDirectionDegrees,WindSpeedMPH,WindSpeedGustMPH,Humidity,HourlyPrecipIn,Conditions,Clouds,dailyrainin,SoftwareType,DateUTC
2013-05-17 00:00:00,56.8,45.1,29.83,SW,220,0.0,0.0,65,0.00,,,0.00,meteohub,2013-05-17 04:00:00,
2013-05-17 00:01:00,56.8,45.1,29.83,SW,220,0.0,0.0,65,0.00,,,0.00,meteohub,2013-05-17 04:01:00,
2013-05-17 00:02:00,56.8,45.7,29.84,SW,220,0.0,0.0,66,0.00,,,0.00,meteohub,2013-05-17 04:02:00,
2013-05-17 00:07:00,56.7,45.5,29.84,SW,220,0.0,0.0,66,0.00,,,0.00,meteohub,2013-05-17 04:07:00,
2013-05-17 00:12:00,56.5,45.7,29.84,SW,220,0.0,0.0,67,0.00,,,0.00,meteohub,2013-05-17 04:12:00,
2013-05-17 00:17:00,56.3,45.5,29.84,SW,220,0.0,0.0,67,0.00,,,0.00,meteohub,2013-05-17 04:17:00,
2013-05-17 00:22:00,56.1,45.7,29.84,SW,220,0.0,0.0,68,0.00,,,0.00,meteohub,2013-05-17 04:22:00,
2013-05-17 00:27:00,55.9,46.8,29.84,SW,220,0.0,0.0,71,0.00,,,0.00,meteohub,2013-05-17 04:27:00,
2013-05-17 00:32:00,55.4,45.9,29.84,SW,220,0.0,0.0,70,0.00,,,0.00,meteohub,2013-05-17 04:32:00,
2013-05-17 00:37:00,55.2,45.1,29.85,SW,220,0.0,1.0,69,0.00,,,0.00,meteohub,2013-05-17 04:37:00,
2013-05-17 00:42:00,55.2,46.0,29.85,SW,220,0.0,1.0,71,0.00,,,0.00,meteohub,2013-05-17 04:42:00,
2013-05-17 00:47:00,55.2,45.7,29.85,SW,220,0.0,1.0,70,0.00,,,0.00,meteohub,2013-05-17 04:47:00,
2013-05-17 00:52:00,55.0,44.2,29.85,West,279,1.0,1.0,67,0.00,,,0.00,meteohub,2013-05-17 04:52:00,
2013-05-17 00:57:00,54.9,46.4,29.85,West,279,0.0,1.0,73,0.00,,,0.00,meteohub,2013-05-17 04:57:00,
2013-05-17 01:02:00,54.7,45.9,29.85,West,279,0.0,1.0,72,0.00,,,0.00,meteohub,2013-05-17 05:02:00,
2013-05-17 01:07:00,54.1,45.0,29.85,West,279,0.0,1.0,71,0.00,,,0.00,meteohub,2013-05-17 05:07:00,
2013-05-17 01:12:00,54.3,43.5,29.85,West,264,0.0,1.0,67,0.00,,,0.00,meteohub,2013-05-17 05:12:00,
2013-05-17 01:17:00,54.5,45.3,29.85,West,263,0.0,2.0,71,0.00,,,0.00,meteohub,2013-05-17 05:17:00,
2013-05-17 01:22:00,54.3,45.5,29.85,West,263,0.0,2.0,72,0.00,,,0.00,meteohub,2013-05-17 05:22:00,
2013-05-17 01:27:00,54.1,43.0,29.85,West,263,0.0,2.0,66,0.00,,,0.00,meteohub,2013-05-17 05:27:00,
2013-05-17 01:32:00,54.0,43.7,29.85,West,263,0.0,1.0,68,0.00,,,0.00,meteohub,2013-05-17 05:32:00,
2013-05-17 01:37:00,53.8,45.0,29.86,West,263,0.0,1.0,72,0.00,,,0.00,meteohub,2013-05-17 05:37:00,
2013-05-17 01:42:00,53.4,45.3,29.86,West,263,0.0,1.0,74,0.00,,,0.00,meteohub,2013-05-17 05:42:00,
2013-05-17 01:47:00,53.1,43.9,29.86,West,263,0.0,1.0,71,0.00,,,0.00,meteohub,2013-05-17 05:47:00,
2013-05-17 01:52:00,53.1,42.8,29.86,West,263,0.0,0.0,68,0.00,,,0.00,meteohub,2013-05-17 05:52:00,
2013-05-17 01:57:00,53.2,44.1,29.86,West,263,0.0,2.0,71,0.00,,,0.00,meteohub,2013-05-17 05:57:00,
2013-05-17 02:02:00,52.9,44.4,29.86,West,263,0.0,2.0,73,0.00,,,0.00,meteohub,2013-05-17 06:02:00,
2013-05-17 02:07:00,52.3,44.6,29.86,West,263,0.0,2.0,75,0.00,,,0.00,meteohub,2013-05-17 06:07:00,
2013-05-17 02:12:00,52.0,42.8,29.87,West,263,0.0,0.0,71,0.00,,,0.00,meteohub,2013-05-17 06:12:00,
2013-05-17 02:17:00,52.2,43.0,29.87,West,263,0.0,2.0,71,0.00,,,0.00,meteohub,2013-05-17 06:17:00,
2013-05-17 02:22:00,52.7,42.8,29.87,West,263,2.0,2.0,69,0.00,,,0.00,meteohub,2013-05-17 06:22:00,
2013-05-17 02:27:00,53.2,42.6,29.88,West,263,0.0,2.0,67,0.00,,,0.00,meteohub,2013-05-17 06:27:00,
2013-05-17 02:32:00,53.6,43.7,29.88,West,263,0.0,2.0,69,0.00,,,0.00,meteohub,2013-05-17 06:32:00,
2013-05-17 02:37:00,53.6,42.1,29.88,ENE,66,0.0,2.0,65,0.00,,,0.00,meteohub,2013-05-17 06:37:00,
2013-05-17 02:42:00,54.0,42.4,29.88,SW,227,0.0,3.0,65,0.00,,,0.00,meteohub,2013-05-17 06:42:00,
2013-05-17 02:47:00,54.9,42.1,29.89,NE,42,0.0,3.0,62,0.00,,,0.00,meteohub,2013-05-17 06:47:00,
2013-05-17 02:52:00,55.2,41.5,29.89,NE,42,0.0,5.0,60,0.00,,,0.00,meteohub,2013-05-17 06:52:00,
2013-05-17 02:57:00,55.6,41.5,29.90,NE,42,0.0,5.0,59,0.00,,,0.00,meteohub,2013-05-17 06:57:00,
2013-05-17 03:02:00,55.8,42.1,29.90,NE,42,0.0,0.0,60,0.00,,,0.00,meteohub,2013-05-17 07:02:00,
2013-05-17 03:07:00,55.9,41.9,29.90,NE,42,0.0,1.0,59,0.00,,,0.00,meteohub,2013-05-17 07:07:00,
2013-05-17 03:12:00,55.9,41.9,29.91,NE,45,1.0,1.0,59,0.00,,,0.00,meteohub,2013-05-17 07:12:00,
2013-05-17 03:17:00,56.1,41.5,29.90,NE,54,0.0,2.0,58,0.00,,,0.00,meteohub,2013-05-17 07:17:00,
2013-05-17 03:22:00,56.5,41.9,29.91,ENE,71,0.0,2.0,58,0.00,,,0.00,meteohub,2013-05-17 07:22:00,
2013-05-17 03:27:00,56.5,41.9,29.91,ENE,71,0.0,2.0,58,0.00,,,0.00,meteohub,2013-05-17 07:27:00,
2013-05-17 03:32:00,56.3,41.7,29.91,ENE,71,0.0,1.0,58,0.00,,,0.00,meteohub,2013-05-17 07:32:00,
2013-05-17 03:37:00,56.3,41.7,29.92,ENE,71,0.0,3.0,58,0.00,,,0.00,meteohub,2013-05-17 07:37:00,
2013-05-17 03:42:00,56.1,41.5,29.92,ENE,71,0.0,3.0,58,0.00,,,0.00,meteohub,2013-05-17 07:42:00,
2013-05-17 03:47:00,56.1,41.2,29.92,ENE,71,0.0,3.0,57,0.00,,,0.00,meteohub,2013-05-17 07:47:00,
2013-05-17 03:52:00,56.1,41.5,29.92,ENE,71,0.0,0.0,58,0.00,,,0.00,meteohub,2013-05-17 07:52:00,
2013-05-17 03:57:00,56.1,41.5,29.92,ENE,70,0.0,2.0,58,0.00,,,0.00,meteohub,2013-05-17 07:57:00,
2013-05-17 04:02:00,56.1,41.2,29.93,ENE,70,0.0,2.0,57,0.00,,,0.00,meteohub,2013-05-17 08:02:00,
2013-05-17 04:07:00,56.1,41.5,29.93,ENE,69,0.0,2.0,58,0.00,,,0.00,meteohub,2013-05-17 08:07:00,
2013-05-17 04:12:00,55.8,41.7,29.93,ENE,69,0.0,2.0,59,0.00,,,0.00,meteohub,2013-05-17 08:12:00,
2013-05-17 04:17:00,55.2,41.5,29.93,ENE,69,0.0,2.0,60,0.00,,,0.00,meteohub,2013-05-17 08:17:00,
2013-05-17 04:22:00,54.9,41.7,29.93,South,182,0.0,2.0,61,0.00,,,0.00,meteohub,2013-05-17 08:22:00,
2013-05-17 04:27:00,54.3,41.5,29.93,South,182,1.0,2.0,62,0.00,,,0.00,meteohub,2013-05-17 08:27:00,
2013-05-17 04:32:00,54.1,41.9,29.93,South,182,0.0,2.0,63,0.00,,,0.00,meteohub,2013-05-17 08:32:00,
2013-05-17 04:37:00,53.8,42.3,29.94,South,182,0.0,2.0,65,0.00,,,0.00,meteohub,2013-05-17 08:37:00,
2013-05-17 04:42:00,53.2,42.3,29.94,South,182,0.0,2.0,66,0.00,,,0.00,meteohub,2013-05-17 08:42:00,
2013-05-17 04:47:00,53.1,42.4,29.94,South,182,1.0,2.0,67,0.00,,,0.00,meteohub,2013-05-17 08:47:00,
2013-05-17 04:52:00,52.5,42.3,29.94,South,182,0.0,3.0,68,0.00,,,0.00,meteohub,2013-05-17 08:52:00,
2013-05-17 04:57:00,52.3,42.1,29.94,South,182,0.0,3.0,68,0.00,,,0.00,meteohub,2013-05-17 08:57:00,
2013-05-17 05:02:00,52.2,41.9,29.94,South,182,0.0,3.0,68,0.00,,,0.00,meteohub,2013-05-17 09:02:00,
2013-05-17 05:07:00,52.0,42.1,29.95,South,182,0.0,1.0,69,0.00,,,0.00,meteohub,2013-05-17 09:07:00,
2013-05-17 05:12:00,52.0,42.1,29.96,South,182,0.0,1.0,69,0.00,,,0.00,meteohub,2013-05-17 09:12:00,
2013-05-17 05:17:00,51.8,42.3,29.96,South,182,0.0,1.0,70,0.00,,,0.00,meteohub,2013-05-17 09:17:00,
2013-05-17 05:22:00,51.6,42.4,29.96,South,182,1.0,1.0,71,0.00,,,0.00,meteohub,2013-05-17 09:22:00,
2013-05-17 05:27:00,51.4,41.9,29.96,South,182,0.0,2.0,70,0.00,,,0.00,meteohub,2013-05-17 09:27:00,
2013-05-17 05:32:00,51.3,41.9,29.96,South,182,0.0,2.0,70,0.00,,,0.00,meteohub,2013-05-17 09:32:00,
2013-05-17 05:37:00,51.4,42.4,29.96,South,182,0.0,2.0,71,0.00,,,0.00,meteohub,2013-05-17 09:37:00,
2013-05-17 05:42:00,51.4,42.4,29.97,South,182,0.0,1.0,71,0.00,,,0.00,meteohub,2013-05-17 09:42:00,
2013-05-17 05:47:00,51.4,41.9,29.97,South,182,0.0,1.0,70,0.00,,,0.00,meteohub,2013-05-17 09:47:00,
2013-05-17 05:52:00,51.4,42.4,29.98,South,182,0.0,1.0,71,0.00,,,0.00,meteohub,2013-05-17 09:52:00,
2013-05-17 05:57:00,51.4,42.8,29.98,South,182,0.0,1.0,72,0.00,,,0.00,meteohub,2013-05-17 09:57:00,
2013-05-17 06:02:00,51.3,42.6,29.98,South,182,2.0,2.0,72,0.00,,,0.00,meteohub,2013-05-17 10:02:00,
2013-05-17 06:07:00,51.3,42.3,29.98,South,188,0.0,2.0,71,0.00,,,0.00,meteohub,2013-05-17 10:07:00,
2013-05-17 06:12:00,51.4,42.8,29.98,South,188,0.0,2.0,72,0.00,,,0.00,meteohub,2013-05-17 10:12:00,
2013-05-17 06:17:00,51.4,42.8,29.99,South,188,0.0,2.0,72,0.00,,,0.00,meteohub,2013-05-17 10:17:00,
2013-05-17 06:21:00,51.6,43.3,29.99,South,188,0.0,1.0,73,0.00,,,0.00,meteohub,2013-05-17 10:21:00,
2013-05-17 06:26:00,52.0,44.2,29.99,South,188,0.0,0.0,75,0.00,,,0.00,meteohub,2013-05-17 10:26:00,
2013-05-17 06:31:00,52.3,43.5,29.99,South,191,0.0,0.0,72,0.00,,,0.00,meteohub,2013-05-17 10:31:00,
2013-05-17 06:37:00,52.9,43.7,30.00,South,183,1.0,0.0,71,0.00,,,0.00,meteohub,2013-05-17 10:37:00,
2013-05-17 06:42:00,54.0,44.1,29.99,South,180,0.0,2.0,69,0.00,,,0.00,meteohub,2013-05-17 10:42:00,
2013-05-17 06:47:00,54.9,45.0,30.00,ENE,58,3.0,3.0,69,0.00,,,0.00,meteohub,2013-05-17 10:47:00,
2013-05-17 06:52:00,55.6,44.8,30.00,NE,53,0.0,3.0,67,0.00,,,0.00,meteohub,2013-05-17 10:52:00,
2013-05-17 06:57:00,56.1,45.0,30.00,NE,53,0.0,5.0,66,0.00,,,0.00,meteohub,2013-05-17 10:57:00,
2013-05-17 07:02:00,56.5,44.1,30.01,East,86,0.0,5.0,63,0.00,,,0.00,meteohub,2013-05-17 11:02:00,
2013-05-17 07:07:00,56.7,43.3,30.01,NE,46,2.0,5.0,61,0.00,,,0.00,meteohub,2013-05-17 11:07:00,
2013-05-17 07:12:00,56.7,43.7,30.01,NNW,348,1.0,12.0,62,0.00,,,0.00,meteohub,2013-05-17 11:12:00,
2013-05-17 07:17:00,56.7,43.0,30.01,NE,49,3.0,12.0,60,0.00,,,0.00,meteohub,2013-05-17 11:17:00,
2013-05-17 07:22:00,56.7,43.7,30.01,ENE,58,1.0,12.0,62,0.00,,,0.00,meteohub,2013-05-17 11:22:00,
2013-05-17 07:27:00,56.7,43.7,30.01,NNE,22,3.0,8.0,62,0.00,,,0.00,meteohub,2013-05-17 11:27:00,
2013-05-17 07:32:00,56.5,43.2,30.01,NNE,22,3.0,8.0,61,0.00,,,0.00,meteohub,2013-05-17 11:32:00,
2013-05-17 07:37:00,56.3,43.0,30.01,NE,49,0.0,7.0,61,0.00,,,0.00,meteohub,2013-05-17 11:37:00,
2013-05-17 07:42:00,56.7,43.3,30.01,NNE,30,0.0,7.0,61,0.00,,,0.00,meteohub,2013-05-17 11:42:00,
2013-05-17 07:47:00,56.8,43.2,30.01,NNE,21,0.0,7.0,60,0.00,,,0.00,meteohub,2013-05-17 11:47:00,
2013-05-17 07:52:00,56.8,43.5,30.01,ENE,70,4.0,9.0,61,0.00,,,0.00,meteohub,2013-05-17 11:52:00,
2013-05-17 07:57:00,56.8,43.2,30.01,NNE,17,14.0,14.0,60,0.00,,,0.00,meteohub,2013-05-17 11:57:00,
2013-05-17 08:02:00,56.5,43.2,30.01,North,0,1.0,14.0,61,0.00,,,0.00,meteohub,2013-05-17 12:02:00,
2013-05-17 08:07:00,56.3,43.0,30.01,NNE,15,9.0,14.0,61,0.00,,,0.00,meteohub,2013-05-17 12:07:00,
2013-05-17 08:12:00,56.5,43.2,30.01,North,355,6.0,14.0,61,0.00,,,0.00,meteohub,2013-05-17 12:12:00,
2013-05-17 08:17:00,56.5,43.2,30.01,NNE,25,4.0,15.0,61,0.00,,,0.00,meteohub,2013-05-17 12:17:00,
2013-05-17 08:22:00,56.5,43.2,30.02,East,90,3.0,15.0,61,0.00,,,0.00,meteohub,2013-05-17 12:22:00,
2013-05-17 08:27:00,56.5,43.7,30.03,North,5,1.0,15.0,62,0.00,,,0.00,meteohub,2013-05-17 12:27:00,
2013-05-17 08:32:00,56.7,43.3,30.03,NNW,348,0.0,12.0,61,0.00,,,0.00,meteohub,2013-05-17 12:32:00,
2013-05-17 08:37:00,56.8,43.5,30.04,NNE,30,4.0,12.0,61,0.00,,,0.00,meteohub,2013-05-17 12:37:00,
2013-05-17 08:42:00,57.0,43.3,30.04,NNE,12,5.0,12.0,60,0.00,,,0.00,meteohub,2013-05-17 12:42:00,
2013-05-17 08:47:00,57.2,43.0,30.04,North,350,1.0,7.0,59,0.00,,,0.00,meteohub,2013-05-17 12:47:00,
2013-05-17 08:52:00,57.2,43.0,30.05,ENE,70,1.0,8.0,59,0.00,,,0.00,meteohub,2013-05-17 12:52:00,
2013-05-17 08:57:00,57.2,43.0,30.05,NNE,24,4.0,8.0,59,0.00,,,0.00,meteohub,2013-05-17 12:57:00,
2013-05-17 09:02:00,57.4,43.7,30.05,NNE,24,3.0,9.0,60,0.00,,,0.00,meteohub,2013-05-17 13:02:00,
2013-05-17 09:07:00,57.6,43.0,30.05,East,82,2.0,9.0,58,0.00,,,0.00,meteohub,2013-05-17 13:07:00,
2013-05-17 09:12:00,57.7,43.0,30.05,NE,46,1.0,7.0,58,0.00,,,0.00,meteohub,2013-05-17 13:12:00,
2013-05-17 09:17:00,57.7,43.0,30.05,SE,126,0.0,5.0,58,0.00,,,0.00,meteohub,2013-05-17 13:17:00,
2013-05-17 09:22:00,57.7,42.6,30.05,WNW,293,0.0,7.0,57,0.00,,,0.00,meteohub,2013-05-17 13:22:00,
2013-05-17 09:27:00,57.7,42.1,30.06,NNE,31,4.0,7.0,56,0.00,,,0.00,meteohub,2013-05-17 13:27:00,
2013-05-17 09:32:00,57.6,41.9,30.06,North,0,3.0,13.0,56,0.00,,,0.00,meteohub,2013-05-17 13:32:00,
2013-05-17 09:37:00,57.7,42.6,30.05,NE,42,6.0,13.0,57,0.00,,,0.00,meteohub,2013-05-17 13:37:00,
2013-05-17 09:42:00,57.9,41.9,30.06,North,0,3.0,13.0,55,0.00,,,0.00,meteohub,2013-05-17 13:42:00,
2013-05-17 09:47:00,57.9,42.8,30.06,NE,51,2.0,10.0,57,0.00,,,0.00,meteohub,2013-05-17 13:47:00,
2013-05-17 09:52:00,58.3,42.3,30.06,WNW,286,1.0,10.0,55,0.00,,,0.00,meteohub,2013-05-17 13:52:00,
2013-05-17 09:57:00,58.5,42.4,30.06,ENE,71,2.0,8.0,55,0.00,,,0.00,meteohub,2013-05-17 13:57:00,
2013-05-17 10:02:00,58.6,42.4,30.06,West,259,2.0,8.0,55,0.00,,,0.00,meteohub,2013-05-17 14:02:00,
2013-05-17 10:07:00,58.8,42.3,30.06,NE,35,5.0,5.0,54,0.00,,,0.00,meteohub,2013-05-17 14:07:00,
2013-05-17 10:12:00,59.2,42.6,30.06,ENE,58,2.0,6.0,54,0.00,,,0.00,meteohub,2013-05-17 14:12:00,
2013-05-17 10:17:00,59.4,42.8,30.06,NE,45,4.0,6.0,54,0.00,,,0.00,meteohub,2013-05-17 14:17:00,
2013-05-17 10:22:00,59.5,42.4,30.06,NNE,26,4.0,7.0,53,0.00,,,0.00,meteohub,2013-05-17 14:22:00,
2013-05-17 10:27:00,59.7,43.0,30.06,NE,53,0.0,7.0,54,0.00,,,0.00,meteohub,2013-05-17 14:27:00,
2013-05-17 10:32:00,60.1,43.3,30.06,North,5,0.0,7.0,54,0.00,,,0.00,meteohub,2013-05-17 14:32:00,
2013-05-17 10:37:00,60.3,43.0,30.06,North,0,8.0,8.0,53,0.00,,,0.00,meteohub,2013-05-17 14:37:00,
2013-05-17 10:42:00,60.3,42.1,30.06,ESE,106,1.0,10.0,51,0.00,,,0.00,meteohub,2013-05-17 14:42:00,
2013-05-17 10:47:00,60.6,43.3,30.06,East,82,3.0,10.0,53,0.00,,,0.00,meteohub,2013-05-17 14:47:00,
2013-05-17 10:52:00,61.0,42.8,30.06,East,88,6.0,10.0,51,0.00,,,0.00,meteohub,2013-05-17 14:52:00,
2013-05-17 10:57:00,61.2,42.4,30.06,NNE,30,3.0,8.0,50,0.00,,,0.00,meteohub,2013-05-17 14:57:00,
2013-05-17 11:02:00,61.5,43.7,30.06,NE,47,3.0,8.0,52,0.00,,,0.00,meteohub,2013-05-17 15:02:00,
2013-05-17 11:07:00,61.9,41.9,30.06,WNW,290,1.0,7.0,48,0.00,,,0.00,meteohub,2013-05-17 15:07:00,
2013-05-17 11:12:00,61.9,42.4,30.06,NW,309,0.0,7.0,49,0.00,,,0.00,meteohub,2013-05-17 15:12:00,
2013-05-17 11:17:00,61.9,43.0,30.06,NNE,16,3.0,5.0,50,0.00,,,0.00,meteohub,2013-05-17 15:17:00,
2013-05-17 11:22:00,62.1,43.2,30.06,NE,52,3.0,8.0,50,0.00,,,0.00,meteohub,2013-05-17 15:22:00,
2013-05-17 11:27:00,62.2,42.3,30.06,NE,54,0.0,9.0,48,0.00,,,0.00,meteohub,2013-05-17 15:27:00,
2013-05-17 11:32:00,62.6,43.2,30.06,WSW,248,2.0,9.0,49,0.00,,,0.00,meteohub,2013-05-17 15:32:00,
2013-05-17 11:37:00,63.0,42.4,30.06,NNE,22,2.0,11.0,47,0.00,,,0.00,meteohub,2013-05-17 15:37:00,
2013-05-17 11:42:00,63.3,42.3,30.06,North,0,2.0,11.0,46,0.00,,,0.00,meteohub,2013-05-17 15:42:00,
2013-05-17 11:47:00,63.3,42.8,30.06,NE,42,4.0,10.0,47,0.00,,,0.00,meteohub,2013-05-17 15:47:00,
2013-05-17 11:52:00,63.7,43.2,30.06,NW,307,0.0,10.0,47,0.00,,,0.00,meteohub,2013-05-17 15:52:00,
2013-05-17 11:57:00,63.9,42.1,30.06,NE,51,0.0,10.0,45,0.00,,,0.00,meteohub,2013-05-17 15:57:00,
2013-05-17 12:02:00,63.9,42.1,30.06,NNE,26,0.0,9.0,45,0.00,,,0.00,meteohub,2013-05-17 16:02:00,
2013-05-17 12:06:00,64.0,42.8,30.06,NNE,23,4.0,9.0,46,0.00,,,0.00,meteohub,2013-05-17 16:06:00,
2013-05-17 12:11:00,64.0,41.7,30.06,NNW,348,0.0,7.0,44,0.00,,,0.00,meteohub,2013-05-17 16:11:00,
2013-05-17 12:16:00,64.0,42.3,30.06,North,9,4.0,8.0,45,0.00,,,0.00,meteohub,2013-05-17 16:16:00,
2013-05-17 12:21:00,64.0,41.7,30.06,ENE,74,4.0,8.0,44,0.00,,,0.00,meteohub,2013-05-17 16:21:00,
2013-05-17 12:26:00,64.0,42.3,30.06,NE,55,0.0,8.0,45,0.00,,,0.00,meteohub,2013-05-17 16:26:00,
2013-05-17 12:31:00,64.2,43.0,30.05,ENE,73,5.0,9.0,46,0.00,,,0.00,meteohub,2013-05-17 16:31:00,
2013-05-17 12:36:00,64.8,42.3,30.06,North,11,6.0,9.0,44,0.00,,,0.00,meteohub,2013-05-17 16:36:00,
2013-05-17 12:41:00,65.1,43.9,30.06,NNE,30,2.0,9.0,46,0.00,,,0.00,meteohub,2013-05-17 16:41:00,
2013-05-17 12:46:00,65.3,41.5,30.06,ENE,57,4.0,7.0,42,0.00,,,0.00,meteohub,2013-05-17 16:46:00,
2013-05-17 12:51:00,65.1,42.6,30.06,North,9,4.0,8.0,44,0.00,,,0.00,meteohub,2013-05-17 16:51:00,
2013-05-17 12:56:00,65.5,44.2,30.06,NNW,334,2.0,8.0,46,0.00,,,0.00,meteohub,2013-05-17 16:56:00,
2013-05-17 13:01:00,65.7,44.2,30.06,NNE,33,0.0,8.0,46,0.00,,,0.00,meteohub,2013-05-17 17:01:00,
2013-05-17 13:06:00,65.8,45.0,30.06,ENE,66,4.0,10.0,47,0.00,,,0.00,meteohub,2013-05-17 17:06:00,
2013-05-17 13:11:00,66.4,43.9,30.06,WSW,248,0.0,10.0,44,0.00,,,0.00,meteohub,2013-05-17 17:11:00,
2013-05-17 13:16:00,66.9,43.2,30.06,North,0,0.0,8.0,42,0.00,,,0.00,meteohub,2013-05-17 17:16:00,
2013-05-17 13:21:00,67.1,43.9,30.06,North,350,0.0,8.0,43,0.00,,,0.00,meteohub,2013-05-17 17:21:00,
2013-05-17 13:26:00,67.3,42.8,30.06,WNW,284,0.0,8.0,41,0.00,,,0.00,meteohub,2013-05-17 17:26:00,
2013-05-17 13:31:00,67.5,45.3,30.05,WNW,285,1.0,8.0,45,0.00,,,0.00,meteohub,2013-05-17 17:31:00,
2013-05-17 13:36:00,68.0,43.3,30.06,North,0,6.0,6.0,41,0.00,,,0.00,meteohub,2013-05-17 17:36:00,
2013-05-17 13:41:00,68.4,42.4,30.06,NNE,25,2.0,7.0,39,0.00,,,0.00,meteohub,2013-05-17 17:41:00,
2013-05-17 13:46:00,68.5,42.6,30.06,East,101,0.0,7.0,39,0.00,,,0.00,meteohub,2013-05-17 17:46:00,
2013-05-17 13:51:00,68.5,43.3,30.06,NNE,20,1.0,7.0,40,0.00,,,0.00,meteohub,2013-05-17 17:51:00,
2013-05-17 13:56:00,68.5,43.3,30.06,WNW,288,2.0,7.0,40,0.00,,,0.00,meteohub,2013-05-17 17:56:00,
2013-05-17 14:01:00,68.7,43.3,30.06,NNE,30,1.0,7.0,40,0.00,,,0.00,meteohub,2013-05-17 18:01:00,
2013-05-17 14:06:00,68.9,43.0,30.06,NNW,347,0.0,5.0,39,0.00,,,0.00,meteohub,2013-05-17 18:06:00,
2013-05-17 14:11:00,69.3,43.2,30.06,WNW,282,1.0,4.0,39,0.00,,,0.00,meteohub,2013-05-17 18:11:00,
2013-05-17 14:16:00,70.0,43.2,30.06,West,277,0.0,6.0,38,0.00,,,0.00,meteohub,2013-05-17 18:16:00,
2013-05-17 14:21:00,70.5,43.0,30.06,East,87,0.0,6.0,37,0.00,,,0.00,meteohub,2013-05-17 18:21:00,
2013-05-17 14:26:00,70.9,43.3,30.06,NNE,13,0.0,4.0,37,0.00,,,0.00,meteohub,2013-05-17 18:26:00,
2013-05-17 14:31:00,70.5,43.0,30.06,WNW,300,0.0,6.0,37,0.00,,,0.00,meteohub,2013-05-17 18:31:00,
2013-05-17 14:36:00,70.3,43.5,30.07,WNW,297,0.0,10.0,38,0.00,,,0.00,meteohub,2013-05-17 18:36:00,
2013-05-17 14:41:00,70.5,43.7,30.07,NE,42,2.0,10.0,38,0.00,,,0.00,meteohub,2013-05-17 18:41:00,
2013-05-17 14:46:00,70.5,43.7,30.07,WSW,255,0.0,10.0,38,0.00,,,0.00,meteohub,2013-05-17 18:46:00,
2013-05-17 14:51:00,70.9,43.3,30.07,ENE,77,0.0,8.0,37,0.00,,,0.00,meteohub,2013-05-17 18:51:00,
2013-05-17 14:56:00,71.2,42.3,30.07,NW,320,1.0,8.0,35,0.00,,,0.00,meteohub,2013-05-17 18:56:00,
2013-05-17 15:01:00,70.5,41.5,30.08,NNE,26,4.0,5.0,35,0.00,,,0.00,meteohub,2013-05-17 19:01:00,
2013-05-17 15:06:00,70.0,42.4,30.08,WNW,288,0.0,10.0,37,0.00,,,0.00,meteohub,2013-05-17 19:06:00,
2013-05-17 15:11:00,70.2,41.9,30.07,ENE,70,4.0,10.0,36,0.00,,,0.00,meteohub,2013-05-17 19:11:00,
2013-05-17 15:16:00,70.0,42.4,30.07,NNE,31,0.0,8.0,37,0.00,,,0.00,meteohub,2013-05-17 19:16:00,
2013-05-17 15:21:00,69.6,42.8,30.07,NE,53,3.0,5.0,38,0.00,,,0.00,meteohub,2013-05-17 19:21:00,
2013-05-17 15:26:00,69.3,41.9,30.07,WNW,294,1.0,6.0,37,0.00,,,0.00,meteohub,2013-05-17 19:26:00,
2013-05-17 15:31:00,69.1,43.2,30.07,NE,56,1.0,6.0,39,0.00,,,0.00,meteohub,2013-05-17 19:31:00,
2013-05-17 15:36:00,68.7,42.8,30.07,ENE,67,0.0,6.0,39,0.00,,,0.00,meteohub,2013-05-17 19:36:00,
2013-05-17 15:41:00,68.9,43.0,30.07,ENE,67,0.0,6.0,39,0.00,,,0.00,meteohub,2013-05-17 19:41:00,
2013-05-17 15:46:00,69.1,41.7,30.07,ENE,70,2.0,6.0,37,0.00,,,0.00,meteohub,2013-05-17 19:46:00,
2013-05-17 15:51:00,69.1,42.4,30.07,NW,305,1.0,7.0,38,0.00,,,0.00,meteohub,2013-05-17 19:51:00,
2013-05-17 15:56:00,68.9,40.8,30.07,WNW,287,0.0,7.0,36,0.00,,,0.00,meteohub,2013-05-17 19:56:00,
2013-05-17 16:01:00,68.7,41.4,30.08,WSW,251,0.0,7.0,37,0.00,,,0.00,meteohub,2013-05-17 20:01:00,
2013-05-17 16:06:00,68.7,42.1,30.07,WSW,253,0.0,5.0,38,0.00,,,0.00,meteohub,2013-05-17 20:06:00,
2013-05-17 16:11:00,68.7,41.4,30.07,South,185,0.0,3.0,37,0.00,,,0.00,meteohub,2013-05-17 20:11:00,
2013-05-17 16:16:00,68.5,41.2,30.08,NNE,28,4.0,8.0,37,0.00,,,0.00,meteohub,2013-05-17 20:16:00,
2013-05-17 16:21:00,68.5,41.9,30.08,ENE,69,4.0,8.0,38,0.00,,,0.00,meteohub,2013-05-17 20:21:00,
2013-05-17 16:26:00,68.5,41.2,30.08,East,81,0.0,9.0,37,0.00,,,0.00,meteohub,2013-05-17 20:26:00,
2013-05-17 16:31:00,68.5,39.7,30.08,NNE,32,0.0,9.0,35,0.00,,,0.00,meteohub,2013-05-17 20:31:00,
2013-05-17 16:36:00,68.7,40.6,30.08,NW,315,0.0,9.0,36,0.00,,,0.00,meteohub,2013-05-17 20:36:00,
2013-05-17 16:41:00,68.7,41.4,30.08,WSW,254,0.0,8.0,37,0.00,,,0.00,meteohub,2013-05-17 20:41:00,
2013-05-17 16:46:00,68.7,39.9,30.08,East,92,1.0,5.0,35,0.00,,,0.00,meteohub,2013-05-17 20:46:00,
2013-05-17 16:51:00,68.5,42.6,30.09,NE,42,2.0,5.0,39,0.00,,,0.00,meteohub,2013-05-17 20:51:00,
2013-05-17 16:56:00,68.5,41.2,30.09,NE,42,0.0,5.0,37,0.00,,,0.00,meteohub,2013-05-17 20:56:00,
2013-05-17 17:01:00,68.4,41.7,30.09,ENE,64,4.0,5.0,38,0.00,,,0.00,meteohub,2013-05-17 21:01:00,
2013-05-17 17:06:00,68.2,41.0,30.09,ENE,68,0.0,7.0,37,0.00,,,0.00,meteohub,2013-05-17 21:06:00,
2013-05-17 17:11:00,68.2,41.0,30.09,North,0,0.0,7.0,37,0.00,,,0.00,meteohub,2013-05-17 21:11:00,
2013-05-17 17:16:00,68.2,41.5,30.09,West,279,0.0,7.0,38,0.00,,,0.00,meteohub,2013-05-17 21:16:00,
2013-05-17 17:21:00,68.2,39.6,30.09,NE,55,7.0,7.0,35,0.00,,,0.00,meteohub,2013-05-17 21:21:00,
2013-05-17 17:26:00,68.2,40.3,30.09,ENE,65,0.0,11.0,36,0.00,,,0.00,meteohub,2013-05-17 21:26:00,
2013-05-17 17:31:00,68.2,39.6,30.09,NNE,14,3.0,11.0,35,0.00,,,0.00,meteohub,2013-05-17 21:31:00,
2013-05-17 17:36:00,68.2,39.6,30.10,North,5,2.0,11.0,35,0.00,,,0.00,meteohub,2013-05-17 21:36:00,
2013-05-17 17:41:00,68.2,40.3,30.10,NE,44,0.0,8.0,36,0.00,,,0.00,meteohub,2013-05-17 21:41:00,
2013-05-17 17:46:00,68.2,39.6,30.10,ENE,76,4.0,7.0,35,0.00,,,0.00,meteohub,2013-05-17 21:46:00,
2013-05-17 17:51:00,68.2,39.6,30.10,North,11,4.0,8.0,35,0.00,,,0.00,meteohub,2013-05-17 21:51:00,
2013-05-17 17:56:00,68.2,39.6,30.10,NNE,33,3.0,8.0,35,0.00,,,0.00,meteohub,2013-05-17 21:56:00,
2013-05-17 18:01:00,68.2,37.9,30.11,North,10,3.0,8.0,33,0.00,,,0.00,meteohub,2013-05-17 22:01:00,
2013-05-17 18:06:00,68.4,38.8,30.11,NE,46,1.0,8.0,34,0.00,,,0.00,meteohub,2013-05-17 22:06:00,
2013-05-17 18:11:00,68.4,39.6,30.11,NE,54,0.0,8.0,35,0.00,,,0.00,meteohub,2013-05-17 22:11:00,
2013-05-17 18:16:00,68.2,39.6,30.11,ENE,60,1.0,8.0,35,0.00,,,0.00,meteohub,2013-05-17 22:16:00,
2013-05-17 18:21:00,68.2,38.7,30.11,NE,46,1.0,5.0,34,0.00,,,0.00,meteohub,2013-05-17 22:21:00,
2013-05-17 18:26:00,68.2,39.6,30.11,NNE,21,0.0,6.0,35,0.00,,,0.00,meteohub,2013-05-17 22:26:00,
2013-05-17 18:31:00,68.0,38.7,30.12,ENE,65,0.0,6.0,34,0.00,,,0.00,meteohub,2013-05-17 22:31:00,
2013-05-17 18:36:00,68.0,39.4,30.12,NE,56,1.0,6.0,35,0.00,,,0.00,meteohub,2013-05-17 22:36:00,
2013-05-17 18:41:00,67.8,39.2,30.12,NNE,30,0.0,6.0,35,0.00,,,0.00,meteohub,2013-05-17 22:41:00,
2013-05-17 18:46:00,67.6,38.3,30.12,NNE,26,6.0,6.0,34,0.00,,,0.00,meteohub,2013-05-17 22:46:00,
2013-05-17 18:51:00,67.6,39.0,30.12,NNE,18,0.0,6.0,35,0.00,,,0.00,meteohub,2013-05-17 22:51:00,
2013-05-17 18:56:00,67.5,38.1,30.12,NE,38,3.0,6.0,34,0.00,,,0.00,meteohub,2013-05-17 22:56:00,
2013-05-17 19:01:00,67.5,38.8,30.12,ENE,65,0.0,6.0,35,0.00,,,0.00,meteohub,2013-05-17 23:01:00,
2013-05-17 19:06:00,67.5,38.8,30.13,ENE,59,3.0,7.0,35,0.00,,,0.00,meteohub,2013-05-17 23:06:00,
2013-05-17 19:11:00,67.1,37.8,30.13,NNE,16,1.0,7.0,34,0.00,,,0.00,meteohub,2013-05-17 23:11:00,
2013-05-17 19:16:00,66.9,37.6,30.13,NE,34,0.0,4.0,34,0.00,,,0.00,meteohub,2013-05-17 23:16:00,
2013-05-17 19:21:00,66.7,37.4,30.13,NNE,26,2.0,4.0,34,0.00,,,0.00,meteohub,2013-05-17 23:21:00,
2013-05-17 19:26:00,66.6,36.5,30.14,NE,34,1.0,4.0,33,0.00,,,0.00,meteohub,2013-05-17 23:26:00,
2013-05-17 19:32:00,66.6,36.5,30.14,NE,36,1.0,4.0,33,0.00,,,0.00,meteohub,2013-05-17 23:32:00,
2013-05-17 19:37:00,66.6,37.4,30.14,East,79,0.0,4.0,34,0.00,,,0.00,meteohub,2013-05-17 23:37:00,
2013-05-17 19:42:00,66.2,37.0,30.14,NE,40,0.0,4.0,34,0.00,,,0.00,meteohub,2013-05-17 23:42:00,
2013-05-17 19:47:00,65.8,37.4,30.14,NE,40,0.0,4.0,35,0.00,,,0.00,meteohub,2013-05-17 23:47:00,
2013-05-17 19:52:00,65.5,37.0,30.15,NE,40,0.0,3.0,35,0.00,,,0.00,meteohub,2013-05-17 23:52:00,
2013-05-17 19:57:00,65.1,38.8,30.15,NE,40,0.0,3.0,38,0.00,,,0.00,meteohub,2013-05-17 23:57:00,
2013-05-17 20:02:00,64.8,38.5,30.15,NE,40,0.0,2.0,38,0.00,,,0.00,meteohub,2013-05-18 00:02:00,
2013-05-17 20:07:00,64.0,39.9,30.15,NE,40,0.0,1.0,41,0.00,,,0.00,meteohub,2013-05-18 00:07:00,
2013-05-17 20:12:00,63.5,39.9,30.16,NE,40,0.0,1.0,42,0.00,,,0.00,meteohub,2013-05-18 00:12:00,
2013-05-17 20:17:00,62.8,39.9,30.16,NE,40,1.0,1.0,43,0.00,,,0.00,meteohub,2013-05-18 00:17:00,
2013-05-17 20:22:00,62.2,40.1,30.17,NE,40,0.0,1.0,44,0.00,,,0.00,meteohub,2013-05-18 00:22:00,
2013-05-17 20:27:00,61.5,39.9,30.17,South,188,1.0,1.0,45,0.00,,,0.00,meteohub,2013-05-18 00:27:00,
2013-05-17 20:32:00,61.2,40.3,30.17,South,188,0.0,2.0,46,0.00,,,0.00,meteohub,2013-05-18 00:32:00,
2013-05-17 20:37:00,60.8,41.0,30.17,South,188,0.0,2.0,48,0.00,,,0.00,meteohub,2013-05-18 00:37:00,
2013-05-17 20:42:00,60.4,41.7,30.17,South,188,0.0,2.0,50,0.00,,,0.00,meteohub,2013-05-18 00:42:00,
2013-05-17 20:47:00,60.1,41.4,30.18,South,188,0.0,1.0,50,0.00,,,0.00,meteohub,2013-05-18 00:47:00,
2013-05-17 20:52:00,59.5,41.4,30.18,South,188,0.0,0.0,51,0.00,,,0.00,meteohub,2013-05-18 00:52:00,
2013-05-17 20:57:00,59.2,41.5,30.19,South,188,0.0,0.0,52,0.00,,,0.00,meteohub,2013-05-18 00:57:00,
2013-05-17 21:02:00,58.6,41.0,30.19,South,188,1.0,2.0,52,0.00,,,0.00,meteohub,2013-05-18 01:02:00,
2013-05-17 21:07:00,58.5,41.4,30.19,South,188,0.0,2.0,53,0.00,,,0.00,meteohub,2013-05-18 01:07:00,
2013-05-17 21:12:00,58.3,41.7,30.19,South,188,1.0,2.0,54,0.00,,,0.00,meteohub,2013-05-18 01:12:00,
2013-05-17 21:17:00,57.9,40.8,30.19,South,188,0.0,2.0,53,0.00,,,0.00,meteohub,2013-05-18 01:17:00,
2013-05-17 21:22:00,57.7,40.6,30.20,South,188,0.0,1.0,53,0.00,,,0.00,meteohub,2013-05-18 01:22:00,
2013-05-17 21:27:00,57.6,41.0,30.20,South,188,1.0,1.0,54,0.00,,,0.00,meteohub,2013-05-18 01:27:00,
2013-05-17 21:32:00,57.4,40.8,30.20,South,188,0.0,2.0,54,0.00,,,0.00,meteohub,2013-05-18 01:32:00,
2013-05-17 21:37:00,57.0,41.5,30.20,South,188,0.0,2.0,56,0.00,,,0.00,meteohub,2013-05-18 01:37:00,
2013-05-17 21:42:00,56.7,42.4,30.20,South,188,0.0,2.0,59,0.00,,,0.00,meteohub,2013-05-18 01:42:00,
2013-05-17 21:47:00,56.1,41.2,30.20,South,188,0.0,1.0,57,0.00,,,0.00,meteohub,2013-05-18 01:47:00,
2013-05-17 21:52:00,55.9,41.0,30.21,South,188,0.0,1.0,57,0.00,,,0.00,meteohub,2013-05-18 01:52:00,
2013-05-17 21:57:00,55.8,41.2,30.21,South,188,0.0,1.0,58,0.00,,,0.00,meteohub,2013-05-18 01:57:00,
2013-05-17 22:02:00,55.4,41.4,30.21,South,188,0.0,1.0,59,0.00,,,0.00,meteohub,2013-05-18 02:02:00,
2013-05-17 22:07:00,55.2,41.2,30.21,South,188,0.0,1.0,59,0.00,,,0.00,meteohub,2013-05-18 02:07:00,
2013-05-17 22:12:00,54.9,41.2,30.21,South,188,1.0,0.0,60,0.00,,,0.00,meteohub,2013-05-18 02:12:00,
2013-05-17 22:17:00,54.7,41.9,30.21,South,188,0.0,2.0,62,0.00,,,0.00,meteohub,2013-05-18 02:17:00,
2013-05-17 22:22:00,54.3,41.5,30.21,South,188,0.0,2.0,62,0.00,,,0.00,meteohub,2013-05-18 02:22:00,
2013-05-17 22:27:00,54.0,41.2,30.21,South,188,0.0,2.0,62,0.00,,,0.00,meteohub,2013-05-18 02:27:00,
2013-05-17 22:34:00,53.8,41.5,30.21,South,188,0.0,1.0,63,0.00,,,0.00,meteohub,2013-05-18 02:34:00,
2013-05-17 22:41:00,53.2,41.0,30.21,South,188,0.0,0.0,63,0.00,,,0.00,meteohub,2013-05-18 02:41:00,
2013-05-17 22:48:00,53.1,41.2,30.21,South,188,0.0,0.0,64,0.00,,,0.00,meteohub,2013-05-18 02:48:00,
2013-05-17 22:55:00,52.9,41.0,30.22,South,188,0.0,0.0,64,0.00,,,0.00,meteohub,2013-05-18 02:55:00,
2013-05-17 23:02:00,52.5,41.2,30.22,South,188,0.0,0.0,65,0.00,,,0.00,meteohub,2013-05-18 03:02:00,
2013-05-17 23:09:00,52.3,41.4,30.22,South,188,0.0,0.0,66,0.00,,,0.00,meteohub,2013-05-18 03:09:00,
2013-05-17 23:16:00,52.2,41.5,30.22,South,188,0.0,1.0,67,0.00,,,0.00,meteohub,2013-05-18 03:16:00,
2013-05-17 23:23:00,52.0,41.4,30.22,South,188,0.0,0.0,67,0.00,,,0.00,meteohub,2013-05-18 03:23:00,
2013-05-17 23:30:00,51.6,41.0,30.23,South,188,0.0,0.0,67,0.00,,,0.00,meteohub,2013-05-18 03:30:00,
2013-05-17 23:37:00,51.6,41.4,30.23,South,188,0.0,0.0,68,0.00,,,0.00,meteohub,2013-05-18 03:37:00,
2013-05-17 23:45:00,51.3,41.0,30.23,South,188,0.0,0.0,68,0.00,,,0.00,meteohub,2013-05-18 03:45:00,
2013-05-17 23:50:00,51.3,41.4,30.23,South,188,0.0,1.0,69,0.00,,,0.00,meteohub,2013-05-18 03:50:00,
2013-05-17 23:55:00,51.3,41.4,30.23,South,188,0.0,1.0,69,0.00,,,0.00,meteohub,2013-05-18 03:55:00,